sensor_id;sensor_type;location;lat;lon;timestamp;temperature;humidity
23411;DHT22;11878;51.774;7.220;2024-02-15T00:02:58;11.60;99.90
23411;DHT22;11878;51.774;7.220;2024-02-15T00:06:17;11.60;99.90
23411;DHT22;11878;51.774;7.220;2024-02-15T00:09:19;11.70;99.90
23411;DHT22;11878;51.774;7.220;2024-02-15T00:12:21;11.60;99.90
23411;DHT22;11878;51.774;7.220;2024-02-15T00:15:24;11.50;99.90
23411;DHT22;11878;51.774;7.220;2024-02-15T00:18:26;11.60;99.90
23411;DHT22;11878;51.774;7.220;2024-02-15T00:21:28;11.70;99.90
23411;DHT22;11878;51.774;7.220;2024-02-15T00:24:30;11.60;99.90
23411;DHT22;11878;51.774;7.220;2024-02-15T00:27:33;11.70;99.90
23411;DHT22;11878;51.774;7.220;2024-02-15T00:30:36;11.60;99.90
23411;DHT22;11878;51.774;7.220;2024-02-15T00:33:38;11.60;99.90
23411;DHT22;11878;51.774;7.220;2024-02-15T00:36:44;11.70;99.90
23411;DHT22;11878;51.774;7.220;2024-02-15T00:39:46;11.60;99.90
23411;DHT22;11878;51.774;7.220;2024-02-15T00:42:48;11.60;99.90
23411;DHT22;11878;51.774;7.220;2024-02-15T00:45:50;11.60;99.90
23411;DHT22;11878;51.774;7.220;2024-02-15T00:48:51;11.60;99.90
23411;DHT22;11878;51.774;7.220;2024-02-15T00:51:54;11.60;99.90
23411;DHT22;11878;51.774;7.220;2024-02-15T00:54:56;11.60;99.90
23411;DHT22;11878;51.774;7.220;2024-02-15T00:57:58;11.60;99.90
23411;DHT22;11878;51.774;7.220;2024-02-15T01:01:00;11.60;99.90
23411;DHT22;11878;51.774;7.220;2024-02-15T01:04:02;11.60;99.90
23411;DHT22;11878;51.774;7.220;2024-02-15T01:07:04;11.50;99.90
23411;DHT22;11878;51.774;7.220;2024-02-15T01:10:07;11.60;99.90
23411;DHT22;11878;51.774;7.220;2024-02-15T01:13:09;11.70;99.90
23411;DHT22;11878;51.774;7.220;2024-02-15T01:16:11;11.60;99.90
23411;DHT22;11878;51.774;7.220;2024-02-15T01:19:13;11.70;99.90
23411;DHT22;11878;51.774;7.220;2024-02-15T01:22:16;11.60;99.90
23411;DHT22;11878;51.774;7.220;2024-02-15T01:25:18;11.70;99.90
23411;DHT22;11878;51.774;7.220;2024-02-15T01:28:20;11.70;99.90
23411;DHT22;11878;51.774;7.220;2024-02-15T01:31:22;11.60;99.90
23411;DHT22;11878;51.774;7.220;2024-02-15T01:34:24;11.60;99.90
23411;DHT22;11878;51.774;7.220;2024-02-15T01:37:26;11.80;99.90
23411;DHT22;11878;51.774;7.220;2024-02-15T01:40:28;11.60;99.90
23411;DHT22;11878;51.774;7.220;2024-02-15T01:43:30;11.70;99.90
23411;DHT22;11878;51.774;7.220;2024-02-15T01:46:33;11.60;99.90
23411;DHT22;11878;51.774;7.220;2024-02-15T01:49:35;11.70;99.90
23411;DHT22;11878;51.774;7.220;2024-02-15T01:52:37;11.60;99.90
23411;DHT22;11878;51.774;7.220;2024-02-15T01:55:39;11.60;99.90
23411;DHT22;11878;51.774;7.220;2024-02-15T01:58:43;11.50;99.90
23411;DHT22;11878;51.774;7.220;2024-02-15T02:01:47;11.70;99.90
23411;DHT22;11878;51.774;7.220;2024-02-15T02:04:49;11.70;99.90
23411;DHT22;11878;51.774;7.220;2024-02-15T02:07:51;11.70;99.90
23411;DHT22;11878;51.774;7.220;2024-02-15T02:10:53;11.70;99.90
23411;DHT22;11878;51.774;7.220;2024-02-15T02:13:56;11.70;99.90
23411;DHT22;11878;51.774;7.220;2024-02-15T02:17:14;11.70;99.90
23411;DHT22;11878;51.774;7.220;2024-02-15T02:20:16;11.70;99.90
23411;DHT22;11878;51.774;7.220;2024-02-15T02:23:21;11.60;99.90
23411;DHT22;11878;51.774;7.220;2024-02-15T02:26:25;11.70;99.90
23411;DHT22;11878;51.774;7.220;2024-02-15T02:29:27;11.70;99.90
23411;DHT22;11878;51.774;7.220;2024-02-15T02:32:35;11.70;99.90
23411;DHT22;11878;51.774;7.220;2024-02-15T02:35:37;11.70;99.90
23411;DHT22;11878;51.774;7.220;2024-02-15T02:38:41;11.70;99.90
23411;DHT22;11878;51.774;7.220;2024-02-15T02:41:47;11.60;99.90
23411;DHT22;11878;51.774;7.220;2024-02-15T02:44:49;11.70;99.90
23411;DHT22;11878;51.774;7.220;2024-02-15T02:47:51;11.80;99.90
23411;DHT22;11878;51.774;7.220;2024-02-15T02:50:55;11.60;99.90
23411;DHT22;11878;51.774;7.220;2024-02-15T02:53:57;11.70;99.90
23411;DHT22;11878;51.774;7.220;2024-02-15T02:56:59;11.70;99.90
23411;DHT22;11878;51.774;7.220;2024-02-15T03:00:06;11.60;99.90
23411;DHT22;11878;51.774;7.220;2024-02-15T03:03:14;11.70;99.90
23411;DHT22;11878;51.774;7.220;2024-02-15T03:06:16;11.80;99.90
23411;DHT22;11878;51.774;7.220;2024-02-15T03:09:19;11.70;99.90
23411;DHT22;11878;51.774;7.220;2024-02-15T03:12:22;11.70;99.90
23411;DHT22;11878;51.774;7.220;2024-02-15T03:15:24;11.70;99.90
23411;DHT22;11878;51.774;7.220;2024-02-15T03:18:26;11.70;99.90
23411;DHT22;11878;51.774;7.220;2024-02-15T03:21:28;11.70;99.90
23411;DHT22;11878;51.774;7.220;2024-02-15T03:24:31;11.70;99.90
23411;DHT22;11878;51.774;7.220;2024-02-15T03:27:35;11.70;99.90
23411;DHT22;11878;51.774;7.220;2024-02-15T03:30:37;11.80;99.90
23411;DHT22;11878;51.774;7.220;2024-02-15T03:33:39;11.70;99.90
23411;DHT22;11878;51.774;7.220;2024-02-15T03:36:41;11.70;99.90
23411;DHT22;11878;51.774;7.220;2024-02-15T03:39:43;11.70;99.90
23411;DHT22;11878;51.774;7.220;2024-02-15T03:42:46;11.70;99.90
23411;DHT22;11878;51.774;7.220;2024-02-15T03:45:54;10.20;99.90
23411;DHT22;11878;51.774;7.220;2024-02-15T03:48:55;13.30;99.90
23411;DHT22;11878;51.774;7.220;2024-02-15T03:52:00;11.60;99.90
23411;DHT22;11878;51.774;7.220;2024-02-15T03:55:03;11.70;99.90
23411;DHT22;11878;51.774;7.220;2024-02-15T03:58:05;11.70;99.90
23411;DHT22;11878;51.774;7.220;2024-02-15T04:01:07;11.70;99.90
23411;DHT22;11878;51.774;7.220;2024-02-15T04:04:11;11.70;99.90
23411;DHT22;11878;51.774;7.220;2024-02-15T04:07:15;11.70;99.90
23411;DHT22;11878;51.774;7.220;2024-02-15T04:10:17;11.70;99.90
23411;DHT22;11878;51.774;7.220;2024-02-15T04:13:20;11.70;99.90
23411;DHT22;11878;51.774;7.220;2024-02-15T04:16:22;11.60;99.90
23411;DHT22;11878;51.774;7.220;2024-02-15T04:19:24;11.70;99.90
23411;DHT22;11878;51.774;7.220;2024-02-15T04:22:26;9.40;99.90
23411;DHT22;11878;51.774;7.220;2024-02-15T04:25:28;11.70;99.90
23411;DHT22;11878;51.774;7.220;2024-02-15T04:28:30;11.60;99.90
23411;DHT22;11878;51.774;7.220;2024-02-15T04:31:32;11.70;99.90
23411;DHT22;11878;51.774;7.220;2024-02-15T04:34:41;11.70;99.90
23411;DHT22;11878;51.774;7.220;2024-02-15T04:37:43;11.60;99.90
23411;DHT22;11878;51.774;7.220;2024-02-15T04:40:45;11.60;99.90
23411;DHT22;11878;51.774;7.220;2024-02-15T04:43:47;11.70;99.90
23411;DHT22;11878;51.774;7.220;2024-02-15T04:46:49;11.60;99.90
23411;DHT22;11878;51.774;7.220;2024-02-15T04:49:53;11.60;99.90
23411;DHT22;11878;51.774;7.220;2024-02-15T04:52:56;11.60;99.90
23411;DHT22;11878;51.774;7.220;2024-02-15T04:55:58;11.60;99.90
23411;DHT22;11878;51.774;7.220;2024-02-15T04:59:02;11.60;99.90
23411;DHT22;11878;51.774;7.220;2024-02-15T05:02:04;11.50;99.90
23411;DHT22;11878;51.774;7.220;2024-02-15T05:05:11;11.60;99.90
23411;DHT22;11878;51.774;7.220;2024-02-15T05:08:15;11.60;99.90
23411;DHT22;11878;51.774;7.220;2024-02-15T05:11:17;11.60;99.90
23411;DHT22;11878;51.774;7.220;2024-02-15T05:14:24;11.50;99.90
23411;DHT22;11878;51.774;7.220;2024-02-15T05:17:26;11.40;99.90
23411;DHT22;11878;51.774;7.220;2024-02-15T05:20:31;11.40;99.90
23411;DHT22;11878;51.774;7.220;2024-02-15T05:23:33;11.40;99.90
23411;DHT22;11878;51.774;7.220;2024-02-15T05:26:36;11.30;99.90
23411;DHT22;11878;51.774;7.220;2024-02-15T05:29:37;11.40;99.90
23411;DHT22;11878;51.774;7.220;2024-02-15T05:32:41;11.40;99.90
23411;DHT22;11878;51.774;7.220;2024-02-15T05:35:45;11.30;99.90
23411;DHT22;11878;51.774;7.220;2024-02-15T05:38:52;11.30;99.90
23411;DHT22;11878;51.774;7.220;2024-02-15T05:41:55;10.50;99.90
23411;DHT22;11878;51.774;7.220;2024-02-15T05:48:31;11.40;99.90
23411;DHT22;11878;51.774;7.220;2024-02-15T05:51:33;11.50;99.90
23411;DHT22;11878;51.774;7.220;2024-02-15T05:54:35;11.50;99.90
23411;DHT22;11878;51.774;7.220;2024-02-15T05:57:37;11.50;99.90
23411;DHT22;11878;51.774;7.220;2024-02-15T06:00:39;11.50;99.90
23411;DHT22;11878;51.774;7.220;2024-02-15T06:03:42;11.50;99.90
23411;DHT22;11878;51.774;7.220;2024-02-15T06:06:46;11.50;99.90
23411;DHT22;11878;51.774;7.220;2024-02-15T06:09:52;11.50;99.90
23411;DHT22;11878;51.774;7.220;2024-02-15T06:12:54;11.40;99.90
23411;DHT22;11878;51.774;7.220;2024-02-15T06:15:56;11.50;99.90
23411;DHT22;11878;51.774;7.220;2024-02-15T06:18:58;11.50;99.90
23411;DHT22;11878;51.774;7.220;2024-02-15T06:22:01;11.50;99.90
23411;DHT22;11878;51.774;7.220;2024-02-15T06:25:03;11.50;99.90
23411;DHT22;11878;51.774;7.220;2024-02-15T06:28:05;11.50;99.90
23411;DHT22;11878;51.774;7.220;2024-02-15T06:31:15;11.60;99.90
23411;DHT22;11878;51.774;7.220;2024-02-15T06:34:35;11.60;99.90
23411;DHT22;11878;51.774;7.220;2024-02-15T06:37:55;11.60;99.90
23411;DHT22;11878;51.774;7.220;2024-02-15T06:41:16;11.60;99.90
23411;DHT22;11878;51.774;7.220;2024-02-15T06:44:18;11.60;99.90
23411;DHT22;11878;51.774;7.220;2024-02-15T06:47:19;11.70;99.90
23411;DHT22;11878;51.774;7.220;2024-02-15T06:50:21;11.70;99.90
23411;DHT22;11878;51.774;7.220;2024-02-15T06:53:24;11.70;99.90
23411;DHT22;11878;51.774;7.220;2024-02-15T06:56:26;11.70;99.90
23411;DHT22;11878;51.774;7.220;2024-02-15T06:59:28;11.70;99.90
23411;DHT22;11878;51.774;7.220;2024-02-15T07:02:29;11.70;99.90
23411;DHT22;11878;51.774;7.220;2024-02-15T07:05:31;11.70;99.90
23411;DHT22;11878;51.774;7.220;2024-02-15T07:08:33;11.70;99.90
23411;DHT22;11878;51.774;7.220;2024-02-15T07:11:35;11.70;99.90
23411;DHT22;11878;51.774;7.220;2024-02-15T07:14:37;11.70;99.90
23411;DHT22;11878;51.774;7.220;2024-02-15T07:17:39;11.70;99.90
23411;DHT22;11878;51.774;7.220;2024-02-15T07:20:41;11.70;99.90
23411;DHT22;11878;51.774;7.220;2024-02-15T07:23:43;11.60;99.90
23411;DHT22;11878;51.774;7.220;2024-02-15T07:26:45;11.60;99.90
23411;DHT22;11878;51.774;7.220;2024-02-15T07:29:47;11.60;99.90
23411;DHT22;11878;51.774;7.220;2024-02-15T07:32:49;11.50;99.90
23411;DHT22;11878;51.774;7.220;2024-02-15T07:35:51;11.50;99.90
23411;DHT22;11878;51.774;7.220;2024-02-15T07:38:54;11.40;99.90
23411;DHT22;11878;51.774;7.220;2024-02-15T07:41:59;11.40;99.90
23411;DHT22;11878;51.774;7.220;2024-02-15T07:45:01;11.40;99.90
23411;DHT22;11878;51.774;7.220;2024-02-15T07:48:06;11.40;99.90
23411;DHT22;11878;51.774;7.220;2024-02-15T07:51:09;11.50;99.90
23411;DHT22;11878;51.774;7.220;2024-02-15T07:54:11;11.50;99.90
23411;DHT22;11878;51.774;7.220;2024-02-15T07:57:13;11.50;99.90
23411;DHT22;11878;51.774;7.220;2024-02-15T08:00:16;11.50;99.90
23411;DHT22;11878;51.774;7.220;2024-02-15T08:03:18;11.50;99.90
23411;DHT22;11878;51.774;7.220;2024-02-15T08:06:20;11.50;99.90
23411;DHT22;11878;51.774;7.220;2024-02-15T08:09:22;11.60;99.90
23411;DHT22;11878;51.774;7.220;2024-02-15T08:12:26;11.60;99.90
23411;DHT22;11878;51.774;7.220;2024-02-15T08:15:28;11.60;99.90
23411;DHT22;11878;51.774;7.220;2024-02-15T08:18:30;11.60;99.90
23411;DHT22;11878;51.774;7.220;2024-02-15T08:21:32;11.60;99.90
23411;DHT22;11878;51.774;7.220;2024-02-15T08:24:35;11.60;99.90
23411;DHT22;11878;51.774;7.220;2024-02-15T08:27:42;11.60;99.90
23411;DHT22;11878;51.774;7.220;2024-02-15T08:30:47;11.70;99.90
23411;DHT22;11878;51.774;7.220;2024-02-15T08:33:48;11.70;99.90
23411;DHT22;11878;51.774;7.220;2024-02-15T08:36:51;11.70;99.90
23411;DHT22;11878;51.774;7.220;2024-02-15T08:39:53;11.70;99.90
23411;DHT22;11878;51.774;7.220;2024-02-15T08:42:55;11.60;99.90
23411;DHT22;11878;51.774;7.220;2024-02-15T08:45:57;11.60;99.90
23411;DHT22;11878;51.774;7.220;2024-02-15T08:48:59;11.60;99.90
23411;DHT22;11878;51.774;7.220;2024-02-15T08:52:02;11.70;99.90
23411;DHT22;11878;51.774;7.220;2024-02-15T08:55:10;11.70;99.90
23411;DHT22;11878;51.774;7.220;2024-02-15T08:58:15;11.80;99.90
23411;DHT22;11878;51.774;7.220;2024-02-15T09:01:17;11.80;99.90
23411;DHT22;11878;51.774;7.220;2024-02-15T09:04:19;11.80;99.90
23411;DHT22;11878;51.774;7.220;2024-02-15T09:07:21;11.90;99.90
23411;DHT22;11878;51.774;7.220;2024-02-15T09:10:24;11.90;99.90
23411;DHT22;11878;51.774;7.220;2024-02-15T09:13:25;11.20;99.90
23411;DHT22;11878;51.774;7.220;2024-02-15T09:16:27;11.90;99.90
23411;DHT22;11878;51.774;7.220;2024-02-15T09:19:29;11.90;99.90
23411;DHT22;11878;51.774;7.220;2024-02-15T09:22:32;11.90;99.90
23411;DHT22;11878;51.774;7.220;2024-02-15T09:25:36;11.80;99.90
23411;DHT22;11878;51.774;7.220;2024-02-15T09:28:40;11.90;99.90
23411;DHT22;11878;51.774;7.220;2024-02-15T09:31:42;11.80;99.90
23411;DHT22;11878;51.774;7.220;2024-02-15T09:34:44;11.90;99.90
23411;DHT22;11878;51.774;7.220;2024-02-15T09:37:48;11.90;99.90
23411;DHT22;11878;51.774;7.220;2024-02-15T09:40:51;11.80;99.90
23411;DHT22;11878;51.774;7.220;2024-02-15T09:43:52;11.90;99.90
23411;DHT22;11878;51.774;7.220;2024-02-15T09:47:05;11.90;99.90
23411;DHT22;11878;51.774;7.220;2024-02-15T09:53:10;11.90;99.90
23411;DHT22;11878;51.774;7.220;2024-02-15T09:56:13;11.90;99.90
23411;DHT22;11878;51.774;7.220;2024-02-15T09:59:16;11.90;99.90
23411;DHT22;11878;51.774;7.220;2024-02-15T10:02:18;11.90;99.90
23411;DHT22;11878;51.774;7.220;2024-02-15T10:05:20;12.00;99.90
23411;DHT22;11878;51.774;7.220;2024-02-15T10:08:22;12.00;99.90
23411;DHT22;11878;51.774;7.220;2024-02-15T10:11:26;12.00;99.90
23411;DHT22;11878;51.774;7.220;2024-02-15T10:14:29;12.00;99.90
23411;DHT22;11878;51.774;7.220;2024-02-15T10:17:31;12.10;99.90
23411;DHT22;11878;51.774;7.220;2024-02-15T10:20:41;12.10;99.90
23411;DHT22;11878;51.774;7.220;2024-02-15T10:23:47;12.00;99.90
23411;DHT22;11878;51.774;7.220;2024-02-15T10:26:48;12.00;99.90
23411;DHT22;11878;51.774;7.220;2024-02-15T10:29:50;12.10;99.90
23411;DHT22;11878;51.774;7.220;2024-02-15T10:32:54;12.10;99.90
23411;DHT22;11878;51.774;7.220;2024-02-15T10:36:09;12.10;99.90
23411;DHT22;11878;51.774;7.220;2024-02-15T10:39:14;12.20;99.90
23411;DHT22;11878;51.774;7.220;2024-02-15T10:42:19;12.20;99.90
23411;DHT22;11878;51.774;7.220;2024-02-15T10:45:21;12.30;99.90
23411;DHT22;11878;51.774;7.220;2024-02-15T10:48:23;12.30;99.90
23411;DHT22;11878;51.774;7.220;2024-02-15T10:51:26;12.30;99.90
23411;DHT22;11878;51.774;7.220;2024-02-15T10:57:39;12.40;99.90
23411;DHT22;11878;51.774;7.220;2024-02-15T11:00:46;12.60;99.90
23411;DHT22;11878;51.774;7.220;2024-02-15T11:03:51;12.50;99.90
23411;DHT22;11878;51.774;7.220;2024-02-15T11:06:58;12.40;99.90
23411;DHT22;11878;51.774;7.220;2024-02-15T11:10:01;12.40;99.90
23411;DHT22;11878;51.774;7.220;2024-02-15T11:13:03;12.50;99.90
23411;DHT22;11878;51.774;7.220;2024-02-15T11:16:06;12.50;99.90
23411;DHT22;11878;51.774;7.220;2024-02-15T11:19:07;12.60;99.90
23411;DHT22;11878;51.774;7.220;2024-02-15T11:22:13;12.70;99.90
23411;DHT22;11878;51.774;7.220;2024-02-15T11:25:40;12.90;99.90
23411;DHT22;11878;51.774;7.220;2024-02-15T11:28:43;13.00;99.90
23411;DHT22;11878;51.774;7.220;2024-02-15T11:31:55;13.10;99.90
23411;DHT22;11878;51.774;7.220;2024-02-15T11:35:04;13.10;99.90
23411;DHT22;11878;51.774;7.220;2024-02-15T11:38:27;13.30;99.90
23411;DHT22;11878;51.774;7.220;2024-02-15T11:41:29;13.30;99.90
23411;DHT22;11878;51.774;7.220;2024-02-15T11:44:31;15.80;99.90
23411;DHT22;11878;51.774;7.220;2024-02-15T11:47:37;13.30;99.90
23411;DHT22;11878;51.774;7.220;2024-02-15T11:50:39;13.30;99.90
23411;DHT22;11878;51.774;7.220;2024-02-15T11:53:41;13.30;99.90
23411;DHT22;11878;51.774;7.220;2024-02-15T11:59:50;13.40;99.90
23411;DHT22;11878;51.774;7.220;2024-02-15T12:03:15;13.50;99.90
23411;DHT22;11878;51.774;7.220;2024-02-15T12:06:35;13.60;99.90
23411;DHT22;11878;51.774;7.220;2024-02-15T12:09:59;13.60;99.90
23411;DHT22;11878;51.774;7.220;2024-02-15T12:13:20;13.70;99.90
23411;DHT22;11878;51.774;7.220;2024-02-15T12:16:40;13.60;99.90
23411;DHT22;11878;51.774;7.220;2024-02-15T12:20:03;13.80;99.90
23411;DHT22;11878;51.774;7.220;2024-02-15T12:23:10;13.80;99.90
23411;DHT22;11878;51.774;7.220;2024-02-15T12:26:13;13.90;99.90
23411;DHT22;11878;51.774;7.220;2024-02-15T12:29:17;14.00;99.90
23411;DHT22;11878;51.774;7.220;2024-02-15T12:32:26;14.20;99.90
23411;DHT22;11878;51.774;7.220;2024-02-15T12:35:28;14.20;99.90
23411;DHT22;11878;51.774;7.220;2024-02-15T12:38:31;14.30;99.90
23411;DHT22;11878;51.774;7.220;2024-02-15T12:41:32;14.20;99.90
23411;DHT22;11878;51.774;7.220;2024-02-15T12:44:35;14.20;99.90
23411;DHT22;11878;51.774;7.220;2024-02-15T12:47:37;14.20;99.90
23411;DHT22;11878;51.774;7.220;2024-02-15T12:50:39;14.30;99.90
23411;DHT22;11878;51.774;7.220;2024-02-15T12:53:42;14.60;99.90
23411;DHT22;11878;51.774;7.220;2024-02-15T12:56:44;14.60;99.90
23411;DHT22;11878;51.774;7.220;2024-02-15T12:59:46;14.80;99.90
23411;DHT22;11878;51.774;7.220;2024-02-15T13:02:50;14.80;99.90
23411;DHT22;11878;51.774;7.220;2024-02-15T13:05:52;14.90;99.90
23411;DHT22;11878;51.774;7.220;2024-02-15T13:08:54;14.80;99.90
23411;DHT22;11878;51.774;7.220;2024-02-15T13:11:56;14.90;99.90
23411;DHT22;11878;51.774;7.220;2024-02-15T13:15:03;14.80;99.90
23411;DHT22;11878;51.774;7.220;2024-02-15T13:18:06;16.00;99.90
23411;DHT22;11878;51.774;7.220;2024-02-15T13:21:12;14.80;99.90
23411;DHT22;11878;51.774;7.220;2024-02-15T13:24:14;14.80;99.90
23411;DHT22;11878;51.774;7.220;2024-02-15T13:27:16;14.80;99.90
23411;DHT22;11878;51.774;7.220;2024-02-15T13:30:18;14.70;99.90
23411;DHT22;11878;51.774;7.220;2024-02-15T13:33:25;14.70;99.90
23411;DHT22;11878;51.774;7.220;2024-02-15T13:36:30;14.70;99.90
23411;DHT22;11878;51.774;7.220;2024-02-15T13:39:32;14.70;99.90
23411;DHT22;11878;51.774;7.220;2024-02-15T13:42:35;14.80;99.90
23411;DHT22;11878;51.774;7.220;2024-02-15T13:45:40;14.80;99.90
23411;DHT22;11878;51.774;7.220;2024-02-15T13:48:43;14.80;99.90
23411;DHT22;11878;51.774;7.220;2024-02-15T13:51:46;14.80;99.90
23411;DHT22;11878;51.774;7.220;2024-02-15T13:54:48;14.80;99.90
23411;DHT22;11878;51.774;7.220;2024-02-15T13:57:50;14.80;99.90
23411;DHT22;11878;51.774;7.220;2024-02-15T14:00:52;14.80;99.90
23411;DHT22;11878;51.774;7.220;2024-02-15T14:03:55;14.90;99.90
23411;DHT22;11878;51.774;7.220;2024-02-15T14:06:57;14.90;99.90
23411;DHT22;11878;51.774;7.220;2024-02-15T14:10:00;14.90;99.90
23411;DHT22;11878;51.774;7.220;2024-02-15T14:13:05;14.90;99.90
23411;DHT22;11878;51.774;7.220;2024-02-15T14:16:11;14.90;99.90
23411;DHT22;11878;51.774;7.220;2024-02-15T14:19:13;15.00;99.90
23411;DHT22;11878;51.774;7.220;2024-02-15T14:22:15;14.80;99.90
23411;DHT22;11878;51.774;7.220;2024-02-15T14:25:18;14.80;99.90
23411;DHT22;11878;51.774;7.220;2024-02-15T14:28:21;14.80;99.90
23411;DHT22;11878;51.774;7.220;2024-02-15T14:31:23;14.80;99.90
23411;DHT22;11878;51.774;7.220;2024-02-15T14:34:44;14.80;99.90
23411;DHT22;11878;51.774;7.220;2024-02-15T14:37:46;14.80;99.90
23411;DHT22;11878;51.774;7.220;2024-02-15T14:40:50;14.90;99.90
23411;DHT22;11878;51.774;7.220;2024-02-15T14:43:57;14.80;99.90
23411;DHT22;11878;51.774;7.220;2024-02-15T14:46:59;14.80;99.90
23411;DHT22;11878;51.774;7.220;2024-02-15T14:50:01;14.80;99.90
23411;DHT22;11878;51.774;7.220;2024-02-15T14:53:03;14.80;99.90
23411;DHT22;11878;51.774;7.220;2024-02-15T14:56:06;14.80;99.90
23411;DHT22;11878;51.774;7.220;2024-02-15T14:59:10;14.80;99.90
23411;DHT22;11878;51.774;7.220;2024-02-15T15:02:13;14.80;99.90
23411;DHT22;11878;51.774;7.220;2024-02-15T15:05:16;14.80;99.90
23411;DHT22;11878;51.774;7.220;2024-02-15T15:08:36;14.80;99.90
23411;DHT22;11878;51.774;7.220;2024-02-15T15:11:57;14.80;99.90
23411;DHT22;11878;51.774;7.220;2024-02-15T15:15:18;14.80;99.90
23411;DHT22;11878;51.774;7.220;2024-02-15T15:18:21;14.70;99.90
23411;DHT22;11878;51.774;7.220;2024-02-15T15:21:23;14.80;99.90
23411;DHT22;11878;51.774;7.220;2024-02-15T15:24:26;14.80;99.90
23411;DHT22;11878;51.774;7.220;2024-02-15T15:27:28;14.80;99.90
23411;DHT22;11878;51.774;7.220;2024-02-15T15:30:30;14.70;99.90
23411;DHT22;11878;51.774;7.220;2024-02-15T15:33:33;14.80;99.90
23411;DHT22;11878;51.774;7.220;2024-02-15T15:36:36;14.80;99.90
23411;DHT22;11878;51.774;7.220;2024-02-15T15:39:38;14.70;99.90
23411;DHT22;11878;51.774;7.220;2024-02-15T15:42:42;14.70;99.90
23411;DHT22;11878;51.774;7.220;2024-02-15T15:45:44;14.80;99.90
23411;DHT22;11878;51.774;7.220;2024-02-15T15:48:47;14.70;99.90
23411;DHT22;11878;51.774;7.220;2024-02-15T15:51:50;14.60;99.90
23411;DHT22;11878;51.774;7.220;2024-02-15T15:54:53;14.30;99.90
23411;DHT22;11878;51.774;7.220;2024-02-15T15:57:55;14.30;99.90
23411;DHT22;11878;51.774;7.220;2024-02-15T16:00:58;14.20;99.90
23411;DHT22;11878;51.774;7.220;2024-02-15T16:04:02;14.00;99.90
23411;DHT22;11878;51.774;7.220;2024-02-15T16:07:04;14.00;99.90
23411;DHT22;11878;51.774;7.220;2024-02-15T16:10:08;14.80;99.90
23411;DHT22;11878;51.774;7.220;2024-02-15T16:13:13;13.90;99.90
23411;DHT22;11878;51.774;7.220;2024-02-15T16:16:15;13.80;99.90
23411;DHT22;11878;51.774;7.220;2024-02-15T16:19:17;13.80;99.90
23411;DHT22;11878;51.774;7.220;2024-02-15T16:22:20;14.00;99.90
23411;DHT22;11878;51.774;7.220;2024-02-15T16:25:23;14.40;99.90
23411;DHT22;11878;51.774;7.220;2024-02-15T16:28:26;14.00;99.90
23411;DHT22;11878;51.774;7.220;2024-02-15T16:31:28;13.70;99.90
23411;DHT22;11878;51.774;7.220;2024-02-15T16:34:30;13.60;99.90
23411;DHT22;11878;51.774;7.220;2024-02-15T16:37:32;13.40;99.90
23411;DHT22;11878;51.774;7.220;2024-02-15T16:40:34;13.60;99.90
23411;DHT22;11878;51.774;7.220;2024-02-15T16:43:36;13.60;99.90
23411;DHT22;11878;51.774;7.220;2024-02-15T16:46:38;13.70;99.90
23411;DHT22;11878;51.774;7.220;2024-02-15T16:49:40;13.40;99.90
23411;DHT22;11878;51.774;7.220;2024-02-15T16:52:42;13.40;99.90
23411;DHT22;11878;51.774;7.220;2024-02-15T16:55:45;13.20;99.90
23411;DHT22;11878;51.774;7.220;2024-02-15T16:58:47;13.20;99.90
23411;DHT22;11878;51.774;7.220;2024-02-15T17:01:52;13.00;99.90
23411;DHT22;11878;51.774;7.220;2024-02-15T17:04:54;13.00;99.90
23411;DHT22;11878;51.774;7.220;2024-02-15T17:07:57;13.00;99.90
23411;DHT22;11878;51.774;7.220;2024-02-15T17:10:59;12.90;99.90
23411;DHT22;11878;51.774;7.220;2024-02-15T17:14:03;12.90;99.90
23411;DHT22;11878;51.774;7.220;2024-02-15T17:17:05;13.30;99.90
23411;DHT22;11878;51.774;7.220;2024-02-15T17:20:07;12.60;99.90
23411;DHT22;11878;51.774;7.220;2024-02-15T17:23:16;12.70;99.90
23411;DHT22;11878;51.774;7.220;2024-02-15T17:26:19;12.70;99.90
23411;DHT22;11878;51.774;7.220;2024-02-15T17:29:21;12.80;99.90
23411;DHT22;11878;51.774;7.220;2024-02-15T17:32:22;12.70;99.90
23411;DHT22;11878;51.774;7.220;2024-02-15T17:35:24;12.80;99.90
23411;DHT22;11878;51.774;7.220;2024-02-15T17:38:28;12.70;99.90
23411;DHT22;11878;51.774;7.220;2024-02-15T17:41:30;12.80;99.90
23411;DHT22;11878;51.774;7.220;2024-02-15T17:44:33;12.90;99.90
23411;DHT22;11878;51.774;7.220;2024-02-15T17:47:36;12.90;99.90
23411;DHT22;11878;51.774;7.220;2024-02-15T17:50:40;12.70;99.90
23411;DHT22;11878;51.774;7.220;2024-02-15T17:53:42;12.70;99.90
23411;DHT22;11878;51.774;7.220;2024-02-15T17:56:46;12.70;99.90
23411;DHT22;11878;51.774;7.220;2024-02-15T17:59:49;12.80;99.90
23411;DHT22;11878;51.774;7.220;2024-02-15T18:02:51;12.70;99.90
23411;DHT22;11878;51.774;7.220;2024-02-15T18:05:53;12.80;99.90
23411;DHT22;11878;51.774;7.220;2024-02-15T18:08:55;12.80;99.90
23411;DHT22;11878;51.774;7.220;2024-02-15T18:11:58;12.90;99.90
23411;DHT22;11878;51.774;7.220;2024-02-15T18:15:01;12.80;99.90
23411;DHT22;11878;51.774;7.220;2024-02-15T18:18:03;12.90;99.90
23411;DHT22;11878;51.774;7.220;2024-02-15T18:21:05;12.70;99.90
23411;DHT22;11878;51.774;7.220;2024-02-15T18:24:07;12.70;99.90
23411;DHT22;11878;51.774;7.220;2024-02-15T18:27:13;12.60;99.90
23411;DHT22;11878;51.774;7.220;2024-02-15T18:30:16;12.80;99.90
23411;DHT22;11878;51.774;7.220;2024-02-15T18:33:22;12.70;99.90
23411;DHT22;11878;51.774;7.220;2024-02-15T18:36:24;12.50;99.90
23411;DHT22;11878;51.774;7.220;2024-02-15T18:39:26;13.80;99.90
23411;DHT22;11878;51.774;7.220;2024-02-15T18:42:30;12.40;99.90
23411;DHT22;11878;51.774;7.220;2024-02-15T18:45:33;12.20;99.90
23411;DHT22;11878;51.774;7.220;2024-02-15T18:48:35;12.40;99.90
23411;DHT22;11878;51.774;7.220;2024-02-15T18:51:39;12.30;99.90
23411;DHT22;11878;51.774;7.220;2024-02-15T18:54:40;12.10;99.90
23411;DHT22;11878;51.774;7.220;2024-02-15T18:57:43;12.10;99.90
23411;DHT22;11878;51.774;7.220;2024-02-15T19:00:46;12.00;99.90
23411;DHT22;11878;51.774;7.220;2024-02-15T19:03:59;12.30;99.90
23411;DHT22;11878;51.774;7.220;2024-02-15T19:07:02;12.20;99.90
23411;DHT22;11878;51.774;7.220;2024-02-15T19:10:04;12.00;99.90
23411;DHT22;11878;51.774;7.220;2024-02-15T19:13:07;11.90;99.90
23411;DHT22;11878;51.774;7.220;2024-02-15T19:16:09;11.90;99.90
23411;DHT22;11878;51.774;7.220;2024-02-15T19:19:13;11.90;99.90
23411;DHT22;11878;51.774;7.220;2024-02-15T19:22:16;11.90;99.90
23411;DHT22;11878;51.774;7.220;2024-02-15T19:25:19;11.80;99.90
23411;DHT22;11878;51.774;7.220;2024-02-15T19:28:22;11.90;99.90
23411;DHT22;11878;51.774;7.220;2024-02-15T19:31:28;11.70;99.90
23411;DHT22;11878;51.774;7.220;2024-02-15T19:34:30;11.70;99.90